createdAt,value
2017-08-06T00:01:40.582Z,"    0"
2017-08-06T00:06:36.828Z,"    0"
2017-08-06T00:11:33.532Z,"    0"
2017-08-06T00:16:30.534Z,"    0"
2017-08-06T00:21:27.015Z,"    0"
2017-08-06T00:26:26.103Z,"    0"
2017-08-06T00:31:22.510Z,"    0"
2017-08-06T00:36:18.329Z,"    0"
2017-08-06T00:41:15.298Z,"    0"
2017-08-06T00:46:11.813Z,"    0"
2017-08-06T00:51:09.589Z,"    0"
2017-08-06T01:01:11.694Z,"    0"
2017-08-06T01:06:13.451Z,"    0"
2017-08-06T01:11:09.949Z,"    0"
2017-08-06T01:21:09.464Z,"    0"
2017-08-06T01:31:11.557Z,"    0"
2017-08-06T01:36:08.774Z,"    0"
2017-08-06T01:41:06.627Z,"    0"
2017-08-06T01:56:07.575Z,"    0"
2017-08-06T02:01:05.722Z,"    0"
2017-08-06T02:06:03.595Z,"    0"
2017-08-06T02:11:05.200Z,"    0"
2017-08-06T02:31:06.958Z,"    0"
2017-08-06T02:36:03.724Z,"    0"
2017-08-06T02:41:01.607Z,"    0"
2017-08-06T02:46:02.460Z,"    0"
2017-08-06T03:01:04.538Z,"    0"
2017-08-06T03:06:02.429Z,"    0"
2017-08-06T03:26:18.406Z,"    0"
2017-08-06T03:31:16.028Z,"    0"
2017-08-06T03:41:14.020Z,"    0"
2017-08-06T03:46:12.961Z,"    0"
2017-08-06T03:51:11.747Z,"    0"
2017-08-06T03:56:07.377Z,"    0"
2017-08-06T04:01:03.513Z,"    5"
2017-08-06T04:06:02.721Z,"    5"
2017-08-06T04:11:03.369Z,"   10"
2017-08-06T04:15:59.567Z,"   15"
2017-08-06T04:20:56.719Z,"   20"
2017-08-06T04:25:53.234Z,"   25"
2017-08-06T04:30:49.634Z,"   25"
2017-08-06T04:35:47.772Z,"   30"
2017-08-06T04:40:45.064Z,"   40"
2017-08-06T04:45:43.017Z,"   60"
2017-08-06T04:50:40.642Z,"   60"
2017-08-06T04:55:36.944Z,"   65"
2017-08-06T05:00:34.240Z,"   65"
2017-08-06T05:05:31.017Z,"   65"
2017-08-06T05:10:28.136Z,"   70"
2017-08-06T05:20:28.101Z,"   75"
2017-08-06T05:25:24.948Z,"   75"
2017-08-06T05:30:22.096Z,"   80"
2017-08-06T05:35:17.860Z,"   80"
2017-08-06T05:40:16.152Z,"   85"
2017-08-06T05:45:11.886Z,"   90"
2017-08-06T05:50:08.572Z,"   95"
2017-08-06T05:55:04.657Z,"   95"
2017-08-06T06:00:01.809Z,"  100"
2017-08-06T06:04:58.580Z,"  110"
2017-08-06T06:09:54.747Z,"  115"
2017-08-06T06:14:50.927Z,"  115"
2017-08-06T06:19:48.882Z,"  120"
2017-08-06T06:24:44.948Z,"  160"
2017-08-06T06:39:48.119Z,"  195"
2017-08-06T06:44:44.673Z,"  160"
2017-08-06T06:49:40.439Z,"  135"
2017-08-06T06:54:37.502Z,"  160"
2017-08-06T06:59:34.191Z,"  130"
2017-08-06T07:04:32.178Z,"  130"
2017-08-06T07:09:30.053Z,"  130"
2017-08-06T07:14:26.436Z,"  130"
2017-08-06T07:19:22.873Z,"  145"
2017-08-06T07:24:19.709Z,"  145"
2017-08-06T07:29:15.641Z,"  155"
2017-08-06T07:34:12.460Z,"  185"
2017-08-06T07:39:08.524Z,"  185"
2017-08-06T07:44:06.485Z,"  180"
2017-08-06T07:49:04.361Z,"  585"
2017-08-06T07:54:00.804Z,"  570"
2017-08-06T07:58:58.027Z,"  595"
2017-08-06T08:03:56.629Z," 1110"
2017-08-06T08:08:55.135Z," 1020"
2017-08-06T08:13:52.929Z," 1095"
2017-08-06T08:18:50.238Z," 1160"
2017-08-06T08:23:48.067Z," 1215"
2017-08-06T08:28:44.440Z," 1210"
2017-08-06T08:33:42.374Z," 1290"
2017-08-06T08:38:39.237Z," 1215"
2017-08-06T08:43:36.184Z," 1370"
2017-08-06T08:48:31.744Z,"  335"
2017-08-06T08:53:27.229Z," 1400"
2017-08-06T08:58:22.181Z,"  360"
2017-08-06T09:03:16.961Z,"  345"
2017-08-06T09:08:12.946Z,"  390"
2017-08-06T09:13:08.354Z,"  330"
2017-08-06T09:18:05.276Z,"  350"
2017-08-06T09:23:01.444Z," 1725"
2017-08-06T09:27:59.809Z,"  365"
2017-08-06T09:32:57.457Z,"  230"
2017-08-06T09:37:55.079Z,"  275"
2017-08-06T09:42:49.516Z,"  420"
2017-08-06T09:47:47.333Z," 1715"
2017-08-06T09:52:44.930Z,"  220"
2017-08-06T09:57:40.644Z," 1875"
2017-08-06T10:02:38.077Z," 1840"
2017-08-06T10:07:36.426Z," 1885"
2017-08-06T10:12:32.790Z," 1890"
2017-08-06T10:17:30.377Z," 1790"
2017-08-06T10:22:27.537Z," 1905"
2017-08-06T10:27:24.520Z," 1225"
2017-08-06T10:32:17.702Z,"  155"
2017-08-06T10:37:12.348Z,"  320"
2017-08-06T10:42:10.990Z,"  250"
2017-08-06T10:47:07.217Z,"  260"
2017-08-06T10:52:03.233Z," 1910"
2017-08-06T10:57:01.254Z," 1850"
2017-08-06T11:02:00.756Z," 1850"
2017-08-06T11:06:57.947Z," 1985"
2017-08-06T11:11:56.057Z," 1855"
2017-08-06T11:16:52.450Z," 1865"
2017-08-06T11:21:49.859Z,"  245"
2017-08-06T11:26:45.259Z," 1960"
2017-08-06T11:31:44.343Z," 1870"
2017-08-06T11:36:41.550Z," 1895"
2017-08-06T11:41:38.506Z," 2025"
2017-08-06T11:46:33.438Z,"  310"
2017-08-06T11:51:29.298Z," 2075"
2017-08-06T11:56:27.958Z,"  285"
2017-08-06T12:01:21.247Z," 2005"
2017-08-06T12:06:19.149Z," 1965"
2017-08-06T12:11:16.705Z," 1980"
2017-08-06T12:16:12.049Z,"  745"
2017-08-06T12:21:03.769Z,"  440"
2017-08-06T12:26:00.727Z,"  510"
2017-08-06T12:30:57.544Z," 2020"
2017-08-06T12:35:54.468Z," 1905"
2017-08-06T12:40:50.544Z,"  290"
2017-08-06T12:45:42.121Z,"  875"
2017-08-06T12:50:40.471Z,"  285"
2017-08-06T12:55:35.040Z,"  510"
2017-08-06T13:00:35.770Z,"  550"
2017-08-06T13:05:29.950Z,"  235"
2017-08-06T13:10:27.867Z," 1175"
2017-08-06T13:15:23.121Z,"  880"
2017-08-06T13:20:19.628Z," 1845"
2017-08-06T13:25:16.624Z," 1755"
2017-08-06T13:30:12.992Z,"  170"
2017-08-06T13:35:08.770Z," 1825"
2017-08-06T13:40:04.972Z," 1510"
2017-08-06T13:45:02.109Z,"  265"
2017-08-06T13:49:58.433Z,"  275"
2017-08-06T13:54:53.506Z," 1520"
2017-08-06T13:59:49.093Z,"  285"
2017-08-06T14:04:46.335Z," 1145"
2017-08-06T14:09:43.323Z,"  200"
2017-08-06T14:14:38.694Z,"  210"
2017-08-06T14:19:35.216Z,"  175"
2017-08-06T14:24:31.722Z,"  195"
2017-08-06T14:29:28.179Z,"  200"
2017-08-06T14:34:24.214Z,"  280"
2017-08-06T14:39:20.392Z,"  245"
2017-08-06T14:44:18.438Z,"  210"
2017-08-06T14:49:15.120Z,"  210"
2017-08-06T14:54:10.801Z,"  195"
2017-08-06T14:59:07.823Z,"  190"
2017-08-06T15:04:05.966Z,"  170"
2017-08-06T15:09:02.057Z,"  145"
2017-08-06T15:13:57.629Z,"  140"
2017-08-06T15:18:54.695Z,"  150"
2017-08-06T15:23:51.553Z,"  145"
2017-08-06T15:28:48.308Z,"  195"
2017-08-06T15:33:45.069Z,"  190"
2017-08-06T15:38:40.678Z,"  200"
2017-08-06T15:43:36.907Z,"  170"
2017-08-06T15:48:33.033Z,"  180"
2017-08-06T15:53:28.920Z,"  135"
2017-08-06T15:58:26.707Z,"  120"
2017-08-06T16:03:21.917Z,"  125"
2017-08-06T16:08:17.610Z,"  105"
2017-08-06T16:13:13.410Z,"  105"
2017-08-06T16:18:10.307Z,"  115"
2017-08-06T16:23:05.969Z,"  120"
2017-08-06T16:28:01.994Z,"  125"
2017-08-06T16:32:59.438Z,"  115"
2017-08-06T16:37:55.456Z,"  140"
2017-08-06T16:42:52.645Z,"  145"
2017-08-06T16:47:49.281Z,"  125"
2017-08-06T16:52:45.228Z,"  120"
2017-08-06T16:57:42.358Z,"  125"
2017-08-06T17:02:38.227Z,"  160"
2017-08-06T17:07:35.383Z,"  150"
2017-08-06T17:12:32.055Z,"  115"
2017-08-06T17:17:28.555Z,"  100"
2017-08-06T17:22:24.123Z,"   90"
2017-08-06T17:27:20.858Z,"   85"
2017-08-06T17:32:17.619Z,"   75"
2017-08-06T17:37:14.158Z,"   65"
2017-08-06T17:42:10.727Z,"   60"
2017-08-06T17:47:06.597Z,"   55"
2017-08-06T17:52:02.531Z,"   50"
2017-08-06T17:56:59.474Z,"   50"
2017-08-06T18:01:54.982Z,"   50"
2017-08-06T18:06:50.748Z,"   45"
2017-08-06T18:11:47.527Z,"   40"
2017-08-06T18:16:43.172Z,"   40"
2017-08-06T18:21:38.954Z,"   35"
2017-08-06T18:26:35.876Z,"   30"
2017-08-06T18:31:31.793Z,"   25"
2017-08-06T18:36:27.913Z,"   25"
2017-08-06T18:41:24.518Z,"   20"
2017-08-06T18:46:20.289Z,"   15"
2017-08-06T18:51:16.023Z,"   10"
2017-08-06T18:56:11.934Z,"    5"
2017-08-06T19:01:08.212Z,"    5"
2017-08-06T19:06:04.521Z,"    5"
2017-08-06T19:11:01.506Z,"    0"
2017-08-06T19:15:59.486Z,"    0"
2017-08-06T19:20:56.236Z,"    0"
2017-08-06T19:25:52.509Z,"    0"
2017-08-06T19:30:48.397Z,"    0"
2017-08-06T19:35:45.172Z,"    0"
2017-08-06T19:40:41.607Z,"    0"
2017-08-06T19:45:38.340Z,"    0"
2017-08-06T19:50:33.963Z,"    0"
2017-08-06T19:55:31.182Z,"    0"
2017-08-06T20:00:26.770Z,"    0"
2017-08-06T20:05:22.393Z,"    0"
2017-08-06T20:10:20.952Z,"    0"
2017-08-06T20:15:16.986Z,"    0"
2017-08-06T20:20:13.557Z,"    0"
2017-08-06T20:25:09.495Z,"    0"
2017-08-06T20:30:05.374Z,"    0"
2017-08-06T20:35:03.010Z,"    0"
2017-08-06T20:39:58.127Z,"    0"
2017-08-06T20:44:54.687Z,"    0"
2017-08-06T20:49:50.366Z,"    0"
2017-08-06T20:54:47.141Z,"    0"
2017-08-06T20:59:42.563Z,"    0"
2017-08-06T21:04:39.500Z,"    0"
2017-08-06T21:09:36.465Z,"    0"
2017-08-06T21:14:32.033Z,"    0"
2017-08-06T21:19:28.817Z,"    0"
2017-08-06T21:24:24.246Z,"    0"
2017-08-06T21:29:21.547Z,"    0"
2017-08-06T21:34:18.279Z,"    0"
2017-08-06T21:39:14.732Z,"    0"
2017-08-06T21:44:11.431Z,"    0"
2017-08-06T21:49:06.727Z,"    0"
2017-08-06T21:54:02.411Z,"    0"
2017-08-06T21:59:00.354Z,"    0"
2017-08-06T22:03:55.822Z,"    0"
2017-08-06T22:08:51.585Z,"    0"
2017-08-06T22:13:47.919Z,"    0"
2017-08-06T22:18:44.995Z,"    0"
2017-08-06T22:23:40.685Z,"    0"
2017-08-06T22:28:36.305Z,"    0"
2017-08-06T22:33:32.494Z,"    0"
2017-08-06T22:38:28.281Z,"    0"
2017-08-06T22:43:24.327Z,"    0"
2017-08-06T22:48:22.393Z,"    0"
2017-08-06T22:53:17.880Z,"    0"
2017-08-06T22:58:13.738Z,"    0"
2017-08-06T23:03:09.453Z,"    0"
2017-08-06T23:08:05.468Z,"    0"
2017-08-06T23:13:01.079Z,"    0"
2017-08-06T23:17:56.778Z,"    0"
2017-08-06T23:22:52.595Z,"    0"
2017-08-06T23:27:48.642Z,"    0"
2017-08-06T23:32:45.066Z,"    0"
2017-08-06T23:37:41.263Z,"    0"
2017-08-06T23:42:36.864Z,"    0"
2017-08-06T23:47:32.821Z,"    0"
2017-08-06T23:52:29.829Z,"    0"
2017-08-06T23:57:27.300Z,"    0"
